Thursday, November 27, 2014
14:26 UTC
  |  Log In   |  Register Free
Airport Search:

Hillsboro Municipal Airport
(KINJ)

Hillsboro Municipal Airport Diagram
No Airport Diagram Available

FAA data valid effective November 13, 2014 - January 08, 2015 (unless otherwise noted).

 
 
 
 
 
 
 
 
 
 
 
 
 
 

Current Aviation Weather for Hillsboro Municipal Airport (KINJ)

The most recent METAR observation for KINJ was updated at: 1416
METAR Summary (Translated METAR)
KINJ
271355Z AUTO 01004KT 10SM CLR 03/M01 A3052 RMK AO2 T00271014
KCPT
271355Z AUTO 33003KT 10SM CLR 02/M01 A3054 RMK AO2
(23.6 nm NW from KINJ)
KJWY
271355Z AUTO 00000KT 10SM CLR 04/M01 A3053 RMK AO2 T00371014
(24.4 nm NE from KINJ)
TAF
No TAF information found within 50 nm of KINJ
  Airport Weather Conditions for KINJ

 Current Weather at INJ
39° F
Fair
North winds at 0.0 mph
INJ NOAA Radar

Pressure: 30.51 in
Humidity: 62%
Wind: Calm
Dew Point: 26.4°F
Visibility: 10.00 mi


Airport Weather Forecast for KINJ

Translated METAR and TAF for KINJ
Translated METAR for KINJ (1421 UTC 27 November 2014)
found at http://aviationweather.gov/adds/metars/
 
METAR text: KINJ 271355Z AUTO 01004KT 10SM CLR 03/M01 A3052 RMK AO2 T00271014
Conditions at: KINJ (HILLSBORO , TX, US) observed 1355 UTC 27 November 2014
Temperature: 2.7°C (37°F)
Dewpoint: -1.4°C (29°F) [RH = 74%]
Pressure (altimeter): 30.52 inches Hg (1033.6 mb)
Winds: from the N (10 degrees) at 5 MPH (4 knots; 2.1 m/s)
Visibility: 10 or more miles (16+ km)
Ceiling: at least 12,000 feet AGL
Clouds: sky clear below 12,000 feet AGL
Weather: automated observation with no human augmentation;
there may or may not be significant weather present at this time
Translated TAF for KINJ

There is no translated TAF available for this airport

Find All Airport Services Find A Hotel Find A Rental Car Find A Golf Course Find A Restaurant $100 Hamburger



FBO's on the Field
FBO Company Facility Photos Services Transportation Aviation Fuel Prices: Prices include tax
Catering Weather Repair Courtesy Rental Type 100LL JetA JetA+ MOGAS 8087
 
Hillsboro Municipal Airport

This FBO has not yet been rated
FS:Avfuel
Last Updated: Nov-21
Login to update fuel prices
SS:
Contact Hillsboro Municipal AirportMore FBO Information
 
Add another FBO Facility Photos Catering Weather Repair Courtesy Rental Type 100LL JetA JetA+ MOGAS 8087
Services Transportation Aviation Fuel Prices: Prices include tax


model-print
model-print
model-print
model-print